createdAt,value
2023-05-07T00:02:00.733Z,99080.63
2023-05-07T00:04:29.591Z,99071.72
2023-05-07T00:06:57.567Z,99056.63
2023-05-07T00:09:25.377Z,99054.41
2023-05-07T00:11:53.187Z,99025.31
2023-05-07T00:14:21.806Z,99003.03
2023-05-07T00:16:51.066Z,99000.09
2023-05-07T00:19:18.978Z,99001.75
2023-05-07T00:21:47.865Z,99005.75
2023-05-07T00:24:15.578Z,98977.50
2023-05-07T00:26:43.364Z,98978.88
2023-05-07T00:29:11.148Z,98942.59
2023-05-07T00:31:39.097Z,98957.13
2023-05-07T00:34:08.240Z,98946.22
2023-05-07T00:36:36.002Z,98937.38
2023-05-07T00:39:04.601Z,98927.09
2023-05-07T00:41:32.933Z,98927.38
2023-05-07T00:44:03.470Z,98954.50
2023-05-07T00:46:31.738Z,98959.78
2023-05-07T00:48:59.798Z,98951.78
2023-05-07T00:51:29.151Z,98949.25
2023-05-07T00:53:56.989Z,98941.25
2023-05-07T00:56:24.908Z,98902.56
2023-05-07T00:58:52.863Z,98901.75
2023-05-07T01:01:21.084Z,98885.25
2023-05-07T01:03:49.432Z,98889.69
2023-05-07T01:06:18.316Z,98900.63
2023-05-07T01:08:48.362Z,98902.16
2023-05-07T01:11:16.281Z,98925.56
2023-05-07T01:13:44.055Z,98943.03
2023-05-07T01:16:12.143Z,98960.31
2023-05-07T01:18:40.960Z,98967.69
2023-05-07T01:21:08.937Z,98950.34
2023-05-07T01:23:38.391Z,98945.63
2023-05-07T01:26:06.494Z,98947.28
2023-05-07T01:28:38.622Z,98964.22
2023-05-07T01:31:07.224Z,98974.50
2023-05-07T01:33:37.203Z,98985.28
2023-05-07T01:36:07.410Z,98973.34
2023-05-07T01:38:35.556Z,98958.38
2023-05-07T01:41:04.875Z,98980.75
2023-05-07T01:43:33.022Z,98979.91
2023-05-07T01:46:01.324Z,98979.75
2023-05-07T01:48:29.178Z,98943.81
2023-05-07T01:50:56.988Z,98935.09
2023-05-07T01:53:24.817Z,98945.63
2023-05-07T01:55:52.632Z,98942.56
2023-05-07T01:58:24.387Z,98942.56
2023-05-07T02:00:53.025Z,98940.91
2023-05-07T02:03:21.087Z,98944.06
2023-05-07T02:05:58.084Z,98940.16
2023-05-07T02:08:32.390Z,98928.00
2023-05-07T02:11:00.868Z,98936.34
2023-05-07T02:13:30.832Z,98928.84
2023-05-07T02:15:58.916Z,98941.94
2023-05-07T02:18:28.316Z,98954.44
2023-05-07T02:20:56.278Z,98937.97
2023-05-07T02:23:24.213Z,98942.44
2023-05-07T02:25:53.275Z,98941.47
2023-05-07T02:28:23.835Z,98951.59
2023-05-07T02:30:59.582Z,98972.06
2023-05-07T02:33:27.715Z,99000.34
2023-05-07T02:35:55.510Z,99009.69
2023-05-07T02:38:23.790Z,99006.00
2023-05-07T02:40:51.824Z,99018.91
2023-05-07T02:43:22.062Z,99013.50
2023-05-07T02:45:51.188Z,99009.91
2023-05-07T02:48:20.391Z,99003.28
2023-05-07T02:50:48.219Z,98957.25
2023-05-07T02:53:16.852Z,98913.59
2023-05-07T02:55:44.748Z,98893.63
2023-05-07T02:58:12.680Z,98894.28
2023-05-07T03:00:42.354Z,98903.81
2023-05-07T03:03:26.032Z,98895.78
2023-05-07T03:05:53.848Z,98914.22
2023-05-07T03:08:24.733Z,98942.25
2023-05-07T03:10:52.668Z,98934.72
2023-05-07T03:13:20.613Z,98921.88
2023-05-07T03:15:49.177Z,98911.91
2023-05-07T03:18:17.512Z,98909.75
2023-05-07T03:20:46.859Z,98920.28
2023-05-07T03:23:14.807Z,98919.69
2023-05-07T03:25:42.682Z,98919.69
2023-05-07T03:28:10.724Z,98943.59
2023-05-07T03:30:44.632Z,98940.50
2023-05-07T03:33:12.390Z,98934.34
2023-05-07T03:35:41.093Z,98949.94
2023-05-07T03:38:10.510Z,98948.38
2023-05-07T03:40:39.843Z,98959.88
2023-05-07T03:43:07.908Z,98965.63
2023-05-07T03:45:38.872Z,98968.03
2023-05-07T03:48:27.091Z,98964.59
2023-05-07T03:50:58.447Z,98970.34
2023-05-07T03:53:30.789Z,98968.13
2023-05-07T03:55:58.676Z,98973.00
2023-05-07T03:58:27.048Z,98970.00
2023-05-07T04:00:58.997Z,98970.59
2023-05-07T04:03:30.077Z,98972.69
2023-05-07T04:06:00.646Z,98974.16
2023-05-07T04:08:32.935Z,98972.56
2023-05-07T04:11:01.233Z,98979.91
2023-05-07T04:13:32.135Z,98997.63
2023-05-07T04:16:06.607Z,99003.75
2023-05-07T04:18:36.793Z,99000.06
2023-05-07T04:21:04.719Z,99003.00
2023-05-07T04:23:34.408Z,99008.53
2023-05-07T04:26:04.974Z,99006.28
2023-05-07T04:28:43.665Z,99024.38
2023-05-07T04:31:12.102Z,99014.84
2023-05-07T04:33:40.742Z,99021.84
2023-05-07T04:36:11.978Z,99032.78
2023-05-07T04:38:49.976Z,99045.44
2023-05-07T04:41:19.627Z,99070.50
2023-05-07T04:43:47.543Z,99056.81
2023-05-07T04:46:17.171Z,99070.72
2023-05-07T04:48:47.519Z,99067.97
2023-05-07T04:51:16.002Z,99078.13
2023-05-07T04:53:44.240Z,99081.59
2023-05-07T04:56:13.964Z,99087.94
2023-05-07T04:58:44.418Z,99096.88
2023-05-07T05:01:12.784Z,99107.41
2023-05-07T05:03:42.081Z,99119.47
2023-05-07T05:06:10.154Z,99135.28
2023-05-07T05:08:39.746Z,99145.47
2023-05-07T05:11:07.580Z,99145.75
2023-05-07T05:13:39.160Z,99156.31
2023-05-07T05:16:13.421Z,99146.31
2023-05-07T05:18:42.033Z,99137.97
2023-05-07T05:21:11.947Z,99151.47
2023-05-07T05:23:40.969Z,99139.41
2023-05-07T05:26:09.902Z,99124.41
2023-05-07T05:28:39.138Z,99141.06
2023-05-07T05:31:07.463Z,99120.81
2023-05-07T05:33:37.699Z,99106.09
2023-05-07T05:36:07.713Z,99105.94
2023-05-07T05:38:38.318Z,99083.56
2023-05-07T05:41:06.335Z,99093.34
2023-05-07T05:43:39.072Z,99090.13
2023-05-07T05:46:09.978Z,99084.22
2023-05-07T05:48:38.084Z,99075.63
2023-05-07T05:51:06.791Z,99064.00
2023-05-07T05:53:35.315Z,99078.16
2023-05-07T05:56:04.013Z,99072.31
2023-05-07T05:58:33.451Z,99061.75
2023-05-07T06:01:04.645Z,99052.22
2023-05-07T06:03:37.130Z,99050.72
2023-05-07T06:06:10.130Z,99053.59
2023-05-07T06:08:39.794Z,99045.69
2023-05-07T06:11:08.163Z,99032.41
2023-05-07T06:13:39.281Z,99016.47
2023-05-07T06:16:08.656Z,99024.34
2023-05-07T06:18:38.202Z,99026.53
2023-05-07T06:21:06.439Z,99006.03
2023-05-07T06:23:40.719Z,99005.19
2023-05-07T06:26:09.040Z,98997.31
2023-05-07T06:28:51.062Z,98987.41
2023-05-07T06:31:21.551Z,98971.13
2023-05-07T06:34:04.708Z,98957.03
2023-05-07T06:36:38.911Z,98954.78
2023-05-07T06:39:21.517Z,98959.09
2023-05-07T06:41:49.379Z,98958.63
2023-05-07T06:44:25.458Z,98958.94
2023-05-07T06:47:16.088Z,98958.34
2023-05-07T06:49:48.125Z,98969.75
2023-05-07T06:52:18.961Z,98973.66
2023-05-07T06:54:48.175Z,98969.75
2023-05-07T06:57:18.237Z,98955.22
2023-05-07T06:59:46.030Z,98944.34
2023-05-07T07:02:14.212Z,98945.97
2023-05-07T07:04:42.990Z,98942.22
2023-05-07T07:07:13.884Z,98951.00
2023-05-07T07:09:43.411Z,98943.53
2023-05-07T07:12:14.711Z,98935.63
2023-05-07T07:14:44.795Z,98938.47
2023-05-07T07:17:14.256Z,98928.78
2023-05-07T07:19:44.629Z,98932.44
2023-05-07T07:22:13.963Z,98917.53
2023-05-07T07:24:43.949Z,98908.59
2023-05-07T07:27:16.704Z,98903.38
2023-05-07T07:29:44.586Z,98885.13
2023-05-07T07:32:12.726Z,98889.91
2023-05-07T07:34:42.434Z,98888.06
2023-05-07T07:37:10.877Z,98876.53
2023-05-07T07:39:41.052Z,98862.81
2023-05-07T07:42:12.987Z,98843.44
2023-05-07T07:44:41.607Z,98847.66
2023-05-07T07:47:14.278Z,98819.41
2023-05-07T07:49:43.778Z,98803.75
2023-05-07T07:52:14.184Z,98771.09
2023-05-07T07:54:45.102Z,98771.63
2023-05-07T07:57:13.364Z,98740.38
2023-05-07T07:59:43.343Z,98711.31
2023-05-07T08:02:12.928Z,98713.69
2023-05-07T08:04:41.284Z,98699.31
2023-05-07T08:07:10.274Z,98661.66
2023-05-07T08:09:42.383Z,98639.22
2023-05-07T08:12:12.795Z,98608.34
2023-05-07T08:14:41.239Z,98589.28
2023-05-07T08:17:10.819Z,98573.81
2023-05-07T08:19:39.537Z,98612.72
2023-05-07T08:22:10.020Z,98587.06
2023-05-07T08:24:43.908Z,98566.09
2023-05-07T08:33:07.769Z,98548.28
2023-05-07T08:35:38.962Z,98541.84
2023-05-07T08:38:09.571Z,98509.47
2023-05-07T08:40:41.952Z,98508.81
2023-05-07T08:43:15.884Z,98510.78
2023-05-07T08:45:45.051Z,98492.97
2023-05-07T08:48:20.509Z,98472.81
2023-05-07T08:50:55.038Z,98456.31
2023-05-07T08:53:23.401Z,98470.41
2023-05-07T08:55:54.524Z,98458.19
2023-05-07T08:58:22.628Z,98432.09
2023-05-07T09:00:51.690Z,98421.59
2023-05-07T09:03:21.372Z,98432.41
2023-05-07T09:05:52.605Z,98402.22
2023-05-07T09:08:25.564Z,98409.75
2023-05-07T09:10:54.067Z,98415.72
2023-05-07T09:13:22.329Z,98402.09
2023-05-07T09:15:51.044Z,98380.88
2023-05-07T09:18:19.328Z,98360.13
2023-05-07T09:20:52.033Z,98371.28
2023-05-07T09:23:22.540Z,98366.28
2023-05-07T09:25:50.746Z,98344.50
2023-05-07T09:28:30.858Z,98354.88
2023-05-07T09:30:59.226Z,98337.00
2023-05-07T09:33:29.433Z,98322.88
2023-05-07T09:35:59.317Z,98349.88
2023-05-07T09:38:27.652Z,98323.06
2023-05-07T09:41:05.730Z,98314.94
2023-05-07T09:43:38.047Z,98314.44
2023-05-07T09:46:10.126Z,98294.53
2023-05-07T09:48:40.921Z,98284.38
2023-05-07T09:51:17.852Z,98276.75
2023-05-07T09:53:47.165Z,98268.13
2023-05-07T09:56:16.240Z,98239.19
2023-05-07T09:58:49.256Z,98265.16
2023-05-07T10:01:17.926Z,98244.03
2023-05-07T10:03:46.521Z,98228.91
2023-05-07T10:06:20.214Z,98237.38
2023-05-07T10:08:48.171Z,98226.06
2023-05-07T10:11:22.440Z,98239.25
2023-05-07T10:13:50.477Z,98213.00
2023-05-07T10:16:18.896Z,98204.13
2023-05-07T10:18:53.615Z,98196.84
2023-05-07T10:21:27.446Z,98194.81
2023-05-07T10:24:01.068Z,98191.59
2023-05-07T10:26:36.010Z,98176.81
2023-05-07T10:29:25.960Z,98166.50
2023-05-07T10:32:01.141Z,98153.00
2023-05-07T10:34:34.153Z,98136.78
2023-05-07T10:37:03.496Z,98133.59
2023-05-07T10:39:31.997Z,98129.16
2023-05-07T10:42:09.718Z,98106.72
2023-05-07T10:44:39.172Z,98093.16
2023-05-07T10:47:12.282Z,98085.63
2023-05-07T10:50:19.890Z,98094.47
2023-05-07T10:52:51.972Z,98089.19
2023-05-07T10:55:29.117Z,98063.31
2023-05-07T10:58:32.061Z,98035.69
2023-05-07T11:01:18.060Z,98045.38
2023-05-07T11:04:25.763Z,98047.34
2023-05-07T11:07:32.301Z,98026.44
2023-05-07T11:10:15.904Z,98027.59
2023-05-07T11:12:57.487Z,98043.72
2023-05-07T11:15:46.458Z,98039.47
2023-05-07T11:18:21.810Z,98032.03
2023-05-07T11:20:58.384Z,98034.44
2023-05-07T11:24:04.188Z,98025.09
2023-05-07T11:26:50.186Z,98020.84
2023-05-07T11:29:22.642Z,98024.38
2023-05-07T11:32:01.369Z,98018.53
2023-05-07T11:34:34.442Z,98012.50
2023-05-07T11:37:02.552Z,98018.91
2023-05-07T11:39:44.135Z,98007.00
2023-05-07T11:42:31.188Z,98002.94
2023-05-07T11:45:02.405Z,98020.22
2023-05-07T11:47:32.560Z,98017.19
2023-05-07T11:50:07.250Z,98026.91
2023-05-07T11:52:40.929Z,98011.13
2023-05-07T11:55:10.267Z,98011.13
2023-05-07T11:57:39.776Z,98017.25
2023-05-07T12:00:09.283Z,97992.28
2023-05-07T12:02:49.830Z,97989.38
2023-05-07T12:05:20.955Z,97977.25
2023-05-07T12:07:58.111Z,97988.88
2023-05-07T12:10:26.067Z,97986.50
2023-05-07T12:12:55.442Z,97980.28
2023-05-07T12:15:25.340Z,97970.19
2023-05-07T12:17:53.658Z,97958.13
2023-05-07T12:23:15.605Z,97967.91
2023-05-07T12:25:47.994Z,97966.81
2023-05-07T12:28:22.454Z,97958.41
2023-05-07T12:30:52.711Z,97954.03
2023-05-07T12:33:25.143Z,97943.03
2023-05-07T12:35:53.023Z,97933.97
2023-05-07T12:38:21.196Z,97928.09
2023-05-07T12:40:52.077Z,97931.97
2023-05-07T12:43:22.122Z,97932.91
2023-05-07T12:45:54.034Z,97938.22
2023-05-07T12:48:22.176Z,97946.16
2023-05-07T12:50:51.728Z,97953.00
2023-05-07T12:53:21.863Z,97947.75
2023-05-07T12:55:50.356Z,97945.19
2023-05-07T12:58:18.905Z,97935.59
2023-05-07T13:00:50.422Z,97925.31
2023-05-07T13:03:26.311Z,97932.09
2023-05-07T13:05:54.278Z,97922.41
2023-05-07T13:08:32.574Z,97918.31
2023-05-07T13:11:04.566Z,97915.94
2023-05-07T13:13:32.928Z,97925.16
2023-05-07T13:16:02.488Z,97911.59
2023-05-07T13:18:31.456Z,97908.84
2023-05-07T13:20:59.524Z,97900.91
2023-05-07T13:23:28.441Z,97877.91
2023-05-07T13:25:57.020Z,97888.00
2023-05-07T13:28:25.396Z,97887.63
2023-05-07T13:30:53.387Z,97886.19
2023-05-07T13:33:22.555Z,97878.94
2023-05-07T13:35:50.549Z,97871.56
2023-05-07T13:38:18.914Z,97879.28
2023-05-07T13:40:48.740Z,97879.09
2023-05-07T13:43:18.569Z,97866.88
2023-05-07T13:45:46.917Z,97869.94
2023-05-07T13:48:17.823Z,97853.00
2023-05-07T13:50:47.510Z,97857.09
2023-05-07T13:53:16.796Z,97849.63
2023-05-07T13:55:45.310Z,97854.25
2023-05-07T13:58:17.031Z,97860.94
2023-05-07T14:00:44.928Z,97852.31
2023-05-07T14:03:12.803Z,97844.06
2023-05-07T14:05:44.974Z,97840.88
2023-05-07T14:08:14.940Z,97841.75
2023-05-07T14:10:43.487Z,97838.97
2023-05-07T14:13:11.802Z,97827.22
2023-05-07T14:15:39.730Z,97834.06
2023-05-07T14:18:07.758Z,97826.00
2023-05-07T14:20:37.777Z,97818.78
2023-05-07T14:23:05.668Z,97817.53
2023-05-07T14:25:35.951Z,97809.94
2023-05-07T14:28:03.785Z,97815.75
2023-05-07T14:30:31.579Z,97809.41
2023-05-07T14:32:59.428Z,97807.56
2023-05-07T14:35:27.344Z,97813.47
2023-05-07T14:37:55.327Z,97800.69
2023-05-07T14:40:23.407Z,97804.34
2023-05-07T14:42:52.663Z,97805.13
2023-05-07T14:45:22.923Z,97807.28
2023-05-07T14:47:50.860Z,97805.91
2023-05-07T14:50:18.996Z,97803.94
2023-05-07T14:52:47.335Z,97805.03
2023-05-07T14:55:17.465Z,97800.34
2023-05-07T14:57:50.120Z,97805.75
2023-05-07T15:00:20.016Z,97803.78
2023-05-07T15:02:50.975Z,97810.09
2023-05-07T15:05:20.371Z,97807.69
2023-05-07T15:07:48.285Z,97796.13
2023-05-07T15:10:16.992Z,97803.72
2023-05-07T15:12:47.597Z,97791.41
2023-05-07T15:15:18.471Z,97786.94
2023-05-07T15:17:47.656Z,97786.09
2023-05-07T15:20:15.636Z,97786.94
2023-05-07T15:22:48.916Z,97777.34
2023-05-07T15:25:19.049Z,97785.50
2023-05-07T15:27:48.586Z,97783.47
2023-05-07T15:30:16.639Z,97777.06
2023-05-07T15:32:49.370Z,97781.59
2023-05-07T15:35:17.217Z,97780.19
2023-05-07T15:37:47.416Z,97780.59
2023-05-07T15:40:15.269Z,97783.25
2023-05-07T15:42:48.859Z,97790.09
2023-05-07T15:45:16.707Z,97779.94
2023-05-07T15:47:49.826Z,97772.94
2023-05-07T15:50:21.112Z,97780.50
2023-05-07T15:52:49.001Z,97769.16
2023-05-07T15:55:16.978Z,97778.75
2023-05-07T15:57:48.731Z,97777.13
2023-05-07T16:00:18.837Z,97775.44
2023-05-07T16:02:46.953Z,97780.75
2023-05-07T16:05:18.182Z,97776.63
2023-05-07T16:07:48.746Z,97777.06
2023-05-07T16:10:16.508Z,97783.56
2023-05-07T16:12:49.977Z,97779.16
2023-05-07T16:15:17.957Z,97782.78
2023-05-07T16:17:47.861Z,97790.19
2023-05-07T16:20:26.077Z,97789.66
2023-05-07T16:22:54.130Z,97784.31
2023-05-07T16:25:27.211Z,97785.94
2023-05-07T16:27:55.250Z,97782.50
2023-05-07T16:30:23.333Z,97794.59
2023-05-07T16:32:51.389Z,97788.25
2023-05-07T16:35:23.821Z,97793.69
2023-05-07T16:37:53.216Z,97787.53
2023-05-07T16:40:24.149Z,97787.72
2023-05-07T16:42:54.749Z,97791.66
2023-05-07T16:45:23.459Z,97803.88
2023-05-07T16:47:51.646Z,97802.81
2023-05-07T16:53:15.485Z,97799.28
2023-05-07T16:55:43.588Z,97810.88
2023-05-07T16:58:12.669Z,97807.72
2023-05-07T17:03:11.582Z,97811.78
2023-05-07T17:05:39.665Z,97808.97
2023-05-07T17:08:22.816Z,97822.75
2023-05-07T17:10:51.286Z,97819.97
2023-05-07T17:13:19.288Z,97810.91
2023-05-07T17:16:08.764Z,97809.16
2023-05-07T17:18:39.139Z,97790.25
2023-05-07T17:21:07.009Z,97795.53
2023-05-07T17:23:36.337Z,97799.16
2023-05-07T17:26:04.329Z,97791.78
2023-05-07T17:28:32.228Z,97797.09
2023-05-07T17:31:00.064Z,97795.41
2023-05-07T17:33:27.974Z,97809.78
2023-05-07T17:35:56.063Z,97810.03
2023-05-07T17:38:26.834Z,97807.19
2023-05-07T17:40:56.169Z,97819.13
2023-05-07T17:43:27.571Z,97820.06
2023-05-07T17:45:55.568Z,97830.72
2023-05-07T17:48:28.716Z,97821.44
2023-05-07T17:51:02.217Z,97834.53
2023-05-07T17:53:32.969Z,97836.78
2023-05-07T17:56:07.779Z,97846.22
2023-05-07T17:58:57.384Z,97839.84
2023-05-07T18:01:27.685Z,97851.91
2023-05-07T18:03:55.919Z,97856.50
2023-05-07T18:06:24.161Z,97862.34
2023-05-07T18:08:57.025Z,97870.69
2023-05-07T18:11:27.930Z,97870.69
2023-05-07T18:13:56.451Z,97869.13
2023-05-07T18:16:24.930Z,97865.78
2023-05-07T18:18:54.317Z,97867.75
2023-05-07T18:21:22.342Z,97876.47
2023-05-07T18:23:51.588Z,97872.66
2023-05-07T18:26:25.916Z,97879.50
2023-05-07T18:28:53.999Z,97882.50
2023-05-07T18:31:22.976Z,97890.44
2023-05-07T18:33:54.455Z,97900.59
2023-05-07T18:36:25.238Z,97914.13
2023-05-07T18:39:01.432Z,97927.44
2023-05-07T18:41:33.925Z,97941.84
2023-05-07T18:44:01.956Z,97956.72
2023-05-07T18:46:30.397Z,97988.00
2023-05-07T18:49:01.038Z,97993.00
2023-05-07T18:51:31.634Z,97990.78
2023-05-07T18:54:03.516Z,98003.75
2023-05-07T18:56:36.174Z,98002.66
2023-05-07T18:59:10.092Z,98006.47
2023-05-07T19:01:40.485Z,98022.63
2023-05-07T19:04:16.444Z,98033.53
2023-05-07T19:06:58.542Z,98041.81
2023-05-07T19:09:26.600Z,98056.94
2023-05-07T19:11:59.681Z,98065.69
2023-05-07T19:14:30.789Z,98072.88
2023-05-07T19:17:01.506Z,98073.72
2023-05-07T19:19:29.486Z,98068.44
2023-05-07T19:21:58.181Z,98071.75
2023-05-07T19:24:25.988Z,98072.41
2023-05-07T19:26:55.624Z,98082.13
2023-05-07T19:29:23.729Z,98084.31
2023-05-07T19:31:53.983Z,98085.69
2023-05-07T19:34:21.878Z,98101.50
2023-05-07T19:36:53.636Z,98106.59
2023-05-07T19:39:21.380Z,98107.06
2023-05-07T19:41:52.740Z,98123.88
2023-05-07T19:44:25.129Z,98140.00
2023-05-07T19:46:55.983Z,98143.09
2023-05-07T19:49:23.958Z,98125.88
2023-05-07T19:51:55.044Z,98125.16
2023-05-07T19:54:23.140Z,98124.03
2023-05-07T19:56:53.880Z,98126.19
2023-05-07T19:59:23.552Z,98132.41
2023-05-07T20:01:51.746Z,98151.53
2023-05-07T20:04:19.673Z,98162.41
2023-05-07T20:06:50.797Z,98176.09
2023-05-07T20:09:21.856Z,98170.63
2023-05-07T20:11:50.596Z,98172.72
2023-05-07T20:14:18.556Z,98185.06
2023-05-07T20:16:47.790Z,98193.06
2023-05-07T20:19:19.712Z,98203.34
2023-05-07T20:21:48.328Z,98221.00
2023-05-07T20:24:20.011Z,98228.75
2023-05-07T20:26:48.379Z,98229.94
2023-05-07T20:29:16.153Z,98242.09
2023-05-07T20:31:44.275Z,98252.31
2023-05-07T20:34:13.513Z,98281.63
2023-05-07T20:36:41.830Z,98288.34
2023-05-07T20:39:13.224Z,98298.81
2023-05-07T20:41:42.225Z,98309.22
2023-05-07T20:44:10.533Z,98310.88
2023-05-07T20:46:38.796Z,98306.25
2023-05-07T20:49:06.990Z,98314.63
2023-05-07T20:51:36.949Z,98324.34
2023-05-07T20:54:04.846Z,98346.25
2023-05-07T20:56:32.890Z,98355.63
2023-05-07T20:59:03.460Z,98366.69
2023-05-07T21:01:31.794Z,98366.88
2023-05-07T21:04:05.832Z,98380.50
2023-05-07T21:06:33.787Z,98379.53
2023-05-07T21:09:03.801Z,98392.31
2023-05-07T21:11:31.588Z,98415.59
2023-05-07T21:13:59.384Z,98423.81
2023-05-07T21:16:27.194Z,98446.19
2023-05-07T21:18:55.520Z,98457.69
2023-05-07T21:21:23.288Z,98475.66
2023-05-07T21:23:53.928Z,98470.31
2023-05-07T21:26:23.964Z,98482.03
2023-05-07T21:28:52.018Z,98477.22
2023-05-07T21:31:20.553Z,98478.88
2023-05-07T21:33:48.486Z,98468.97
2023-05-07T21:36:16.608Z,98473.25
2023-05-07T21:41:31.179Z,98461.13
2023-05-07T21:43:59.071Z,98455.09
2023-05-07T21:46:27.315Z,98456.59
2023-05-07T21:48:58.174Z,98449.31
2023-05-07T21:51:26.050Z,98442.22
2023-05-07T21:53:56.607Z,98440.59
2023-05-07T21:56:24.636Z,98434.81
2023-05-07T21:58:53.910Z,98423.22
2023-05-07T22:01:21.824Z,98419.09
2023-05-07T22:03:49.997Z,98411.75
2023-05-07T22:06:21.834Z,98407.97
2023-05-07T22:08:49.931Z,98395.34
2023-05-07T22:11:17.839Z,98381.88
2023-05-07T22:13:46.767Z,98373.91
2023-05-07T22:16:16.117Z,98374.22
2023-05-07T22:18:44.411Z,98377.97
2023-05-07T22:21:14.659Z,98377.72
2023-05-07T22:23:44.164Z,98372.72
2023-05-07T22:26:12.607Z,98369.44
2023-05-07T22:28:40.584Z,98364.47
2023-05-07T22:31:08.635Z,98362.72
2023-05-07T22:33:37.889Z,98346.94
2023-05-07T22:36:07.744Z,98348.28
2023-05-07T22:38:35.591Z,98355.16
2023-05-07T22:41:03.433Z,98340.25
2023-05-07T22:43:31.225Z,98346.00
2023-05-07T22:45:59.958Z,98334.72
2023-05-07T22:48:27.940Z,98332.84
2023-05-07T22:50:57.283Z,98327.88
2023-05-07T22:53:25.928Z,98322.47
2023-05-07T22:55:54.082Z,98322.53
2023-05-07T22:58:21.955Z,98332.59
2023-05-07T23:00:49.938Z,98325.69
2023-05-07T23:03:18.138Z,98318.00
2023-05-07T23:05:46.341Z,98323.19
2023-05-07T23:08:15.781Z,98319.06
2023-05-07T23:10:43.645Z,98319.34
2023-05-07T23:13:17.165Z,98310.41
2023-05-07T23:15:45.427Z,98316.75
2023-05-07T23:18:13.326Z,98315.97
2023-05-07T23:20:44.168Z,98312.25
2023-05-07T23:23:11.980Z,98303.59
2023-05-07T23:25:41.197Z,98303.03
2023-05-07T23:28:09.011Z,98296.94
2023-05-07T23:30:37.094Z,98287.66
2023-05-07T23:33:05.107Z,98278.50
2023-05-07T23:35:33.003Z,98271.38
2023-05-07T23:38:00.763Z,98254.88
2023-05-07T23:40:28.781Z,98264.28
2023-05-07T23:42:57.960Z,98255.69
2023-05-07T23:45:25.769Z,98269.19
2023-05-07T23:47:53.841Z,98267.63
2023-05-07T23:50:21.714Z,98270.00
2023-05-07T23:52:49.573Z,98268.25
2023-05-07T23:55:17.391Z,98260.47
2023-05-07T23:57:45.662Z,98264.09
